sensor_id;sensor_type;location;lat;lon;timestamp;temperature;humidity
2042;DHT22;1026;51.460;7.252;2022-07-05T00:02:15;23.30;61.80
2042;DHT22;1026;51.460;7.252;2022-07-05T00:04:41;23.30;61.90
2042;DHT22;1026;51.460;7.252;2022-07-05T00:07:06;23.20;61.80
2042;DHT22;1026;51.460;7.252;2022-07-05T00:09:52;23.20;61.90
2042;DHT22;1026;51.460;7.252;2022-07-05T00:12:19;23.20;62.00
2042;DHT22;1026;51.460;7.252;2022-07-05T00:14:46;23.10;62.00
2042;DHT22;1026;51.460;7.252;2022-07-05T00:17:12;23.20;62.10
2042;DHT22;1026;51.460;7.252;2022-07-05T00:19:39;23.10;62.00
2042;DHT22;1026;51.460;7.252;2022-07-05T00:22:05;23.10;62.10
2042;DHT22;1026;51.460;7.252;2022-07-05T00:24:31;23.10;62.20
2042;DHT22;1026;51.460;7.252;2022-07-05T00:26:56;23.00;62.20
2042;DHT22;1026;51.460;7.252;2022-07-05T00:29:22;23.00;62.20
2042;DHT22;1026;51.460;7.252;2022-07-05T00:31:48;23.00;62.30
2042;DHT22;1026;51.460;7.252;2022-07-05T00:34:13;23.00;62.40
2042;DHT22;1026;51.460;7.252;2022-07-05T00:36:39;23.00;62.50
2042;DHT22;1026;51.460;7.252;2022-07-05T00:39:06;23.00;62.50
2042;DHT22;1026;51.460;7.252;2022-07-05T00:41:33;22.90;62.50
2042;DHT22;1026;51.460;7.252;2022-07-05T00:44:01;22.80;62.40
2042;DHT22;1026;51.460;7.252;2022-07-05T00:46:28;22.90;62.60
2042;DHT22;1026;51.460;7.252;2022-07-05T00:48:54;22.90;62.70
2042;DHT22;1026;51.460;7.252;2022-07-05T00:51:20;22.80;62.60
2042;DHT22;1026;51.460;7.252;2022-07-05T00:53:47;22.80;62.70
2042;DHT22;1026;51.460;7.252;2022-07-05T00:56:13;22.70;62.60
2042;DHT22;1026;51.460;7.252;2022-07-05T00:58:39;22.70;62.60
2042;DHT22;1026;51.460;7.252;2022-07-05T01:01:06;22.70;62.70
2042;DHT22;1026;51.460;7.252;2022-07-05T01:03:33;22.70;62.80
2042;DHT22;1026;51.460;7.252;2022-07-05T01:06:01;22.60;62.70
2042;DHT22;1026;51.460;7.252;2022-07-05T01:08:27;22.60;62.70
2042;DHT22;1026;51.460;7.252;2022-07-05T01:10:55;22.60;62.80
2042;DHT22;1026;51.460;7.252;2022-07-05T01:13:22;22.60;62.90
2042;DHT22;1026;51.460;7.252;2022-07-05T01:15:48;22.60;63.00
2042;DHT22;1026;51.460;7.252;2022-07-05T01:18:14;22.50;62.90
2042;DHT22;1026;51.460;7.252;2022-07-05T01:20:41;22.50;62.90
2042;DHT22;1026;51.460;7.252;2022-07-05T01:23:07;22.50;63.00
2042;DHT22;1026;51.460;7.252;2022-07-05T01:25:33;22.40;62.90
2042;DHT22;1026;51.460;7.252;2022-07-05T01:28:00;22.40;63.00
2042;DHT22;1026;51.460;7.252;2022-07-05T01:30:26;22.40;63.10
2042;DHT22;1026;51.460;7.252;2022-07-05T01:32:51;22.30;63.00
2042;DHT22;1026;51.460;7.252;2022-07-05T01:35:18;22.40;63.10
2042;DHT22;1026;51.460;7.252;2022-07-05T01:37:48;22.30;63.10
2042;DHT22;1026;51.460;7.252;2022-07-05T01:40:14;22.20;63.10
2042;DHT22;1026;51.460;7.252;2022-07-05T01:42:40;22.30;63.20
2042;DHT22;1026;51.460;7.252;2022-07-05T01:45:06;22.30;63.30
2042;DHT22;1026;51.460;7.252;2022-07-05T01:47:36;22.30;63.30
2042;DHT22;1026;51.460;7.252;2022-07-05T01:50:04;22.10;63.10
2042;DHT22;1026;51.460;7.252;2022-07-05T01:52:31;22.10;63.20
2042;DHT22;1026;51.460;7.252;2022-07-05T01:54:58;22.10;63.20
2042;DHT22;1026;51.460;7.252;2022-07-05T01:57:27;22.10;63.30
2042;DHT22;1026;51.460;7.252;2022-07-05T01:59:53;22.10;63.30
2042;DHT22;1026;51.460;7.252;2022-07-05T02:02:18;22.10;63.30
2042;DHT22;1026;51.460;7.252;2022-07-05T02:04:44;22.00;63.30
2042;DHT22;1026;51.460;7.252;2022-07-05T02:07:10;22.00;63.40
2042;DHT22;1026;51.460;7.252;2022-07-05T02:09:36;22.10;63.50
2042;DHT22;1026;51.460;7.252;2022-07-05T02:12:03;22.00;63.40
2042;DHT22;1026;51.460;7.252;2022-07-05T02:14:30;22.00;63.50
2042;DHT22;1026;51.460;7.252;2022-07-05T02:16:56;21.90;63.50
2042;DHT22;1026;51.460;7.252;2022-07-05T02:19:21;22.00;63.60
2042;DHT22;1026;51.460;7.252;2022-07-05T02:21:47;22.00;63.60
2042;DHT22;1026;51.460;7.252;2022-07-05T02:24:13;21.90;63.60
2042;DHT22;1026;51.460;7.252;2022-07-05T02:26:39;21.80;63.50
2042;DHT22;1026;51.460;7.252;2022-07-05T02:29:05;21.80;63.60
2042;DHT22;1026;51.460;7.252;2022-07-05T02:31:31;21.80;63.60
2042;DHT22;1026;51.460;7.252;2022-07-05T02:33:57;21.90;63.70
2042;DHT22;1026;51.460;7.252;2022-07-05T02:36:23;21.80;63.70
2042;DHT22;1026;51.460;7.252;2022-07-05T02:38:49;21.70;63.70
2042;DHT22;1026;51.460;7.252;2022-07-05T02:41:15;21.80;63.80
2042;DHT22;1026;51.460;7.252;2022-07-05T02:43:41;21.60;63.60
2042;DHT22;1026;51.460;7.252;2022-07-05T02:46:08;21.80;63.90
2042;DHT22;1026;51.460;7.252;2022-07-05T02:48:35;21.80;64.00
2042;DHT22;1026;51.460;7.252;2022-07-05T02:51:02;21.70;63.90
2042;DHT22;1026;51.460;7.252;2022-07-05T02:53:29;21.60;63.90
2042;DHT22;1026;51.460;7.252;2022-07-05T02:55:54;21.60;63.90
2042;DHT22;1026;51.460;7.252;2022-07-05T02:58:20;21.70;64.10
2042;DHT22;1026;51.460;7.252;2022-07-05T03:00:47;21.70;64.00
2042;DHT22;1026;51.460;7.252;2022-07-05T03:03:14;21.50;63.90
2042;DHT22;1026;51.460;7.252;2022-07-05T03:05:40;21.60;64.00
2042;DHT22;1026;51.460;7.252;2022-07-05T03:08:05;21.60;64.00
2042;DHT22;1026;51.460;7.252;2022-07-05T03:10:32;21.60;64.10
2042;DHT22;1026;51.460;7.252;2022-07-05T03:12:58;21.50;64.10
2042;DHT22;1026;51.460;7.252;2022-07-05T03:15:24;21.50;64.10
2042;DHT22;1026;51.460;7.252;2022-07-05T03:17:50;21.50;64.10
2042;DHT22;1026;51.460;7.252;2022-07-05T03:20:16;21.50;64.10
2042;DHT22;1026;51.460;7.252;2022-07-05T03:22:41;21.50;64.20
2042;DHT22;1026;51.460;7.252;2022-07-05T03:25:09;21.50;64.20
2042;DHT22;1026;51.460;7.252;2022-07-05T03:27:35;21.40;64.10
2042;DHT22;1026;51.460;7.252;2022-07-05T03:30:02;21.40;64.20
2042;DHT22;1026;51.460;7.252;2022-07-05T03:32:28;21.40;64.20
2042;DHT22;1026;51.460;7.252;2022-07-05T03:34:54;21.40;64.20
2042;DHT22;1026;51.460;7.252;2022-07-05T03:37:19;21.40;64.30
2042;DHT22;1026;51.460;7.252;2022-07-05T03:39:46;21.40;64.30
2042;DHT22;1026;51.460;7.252;2022-07-05T03:42:11;21.30;64.30
2042;DHT22;1026;51.460;7.252;2022-07-05T03:44:37;21.40;64.40
2042;DHT22;1026;51.460;7.252;2022-07-05T03:47:03;21.30;64.40
2042;DHT22;1026;51.460;7.252;2022-07-05T03:49:29;21.30;64.60
2042;DHT22;1026;51.460;7.252;2022-07-05T03:51:54;21.30;64.60
2042;DHT22;1026;51.460;7.252;2022-07-05T03:54:20;21.20;64.40
2042;DHT22;1026;51.460;7.252;2022-07-05T03:56:46;21.30;64.60
2042;DHT22;1026;51.460;7.252;2022-07-05T03:59:11;21.10;64.40
2042;DHT22;1026;51.460;7.252;2022-07-05T04:01:37;21.30;64.80
2042;DHT22;1026;51.460;7.252;2022-07-05T04:04:03;21.30;64.80
2042;DHT22;1026;51.460;7.252;2022-07-05T04:06:29;21.20;64.60
2042;DHT22;1026;51.460;7.252;2022-07-05T04:08:54;21.20;64.70
2042;DHT22;1026;51.460;7.252;2022-07-05T04:11:20;21.20;64.70
2042;DHT22;1026;51.460;7.252;2022-07-05T04:13:46;21.00;64.50
2042;DHT22;1026;51.460;7.252;2022-07-05T04:16:12;21.10;64.70
2042;DHT22;1026;51.460;7.252;2022-07-05T04:18:38;21.10;64.80
2042;DHT22;1026;51.460;7.252;2022-07-05T04:21:04;21.10;64.80
2042;DHT22;1026;51.460;7.252;2022-07-05T04:23:30;21.10;64.90
2042;DHT22;1026;51.460;7.252;2022-07-05T04:25:56;21.00;64.80
2042;DHT22;1026;51.460;7.252;2022-07-05T04:28:21;21.10;64.90
2042;DHT22;1026;51.460;7.252;2022-07-05T04:30:47;20.90;64.70
2042;DHT22;1026;51.460;7.252;2022-07-05T04:33:13;21.00;64.90
2042;DHT22;1026;51.460;7.252;2022-07-05T04:35:38;21.00;65.00
2042;DHT22;1026;51.460;7.252;2022-07-05T04:38:04;21.00;65.00
2042;DHT22;1026;51.460;7.252;2022-07-05T04:40:30;21.00;65.00
2042;DHT22;1026;51.460;7.252;2022-07-05T04:42:55;20.90;64.90
2042;DHT22;1026;51.460;7.252;2022-07-05T04:45:21;20.90;65.00
2042;DHT22;1026;51.460;7.252;2022-07-05T04:47:47;21.00;65.10
2042;DHT22;1026;51.460;7.252;2022-07-05T04:50:13;20.90;65.00
2042;DHT22;1026;51.460;7.252;2022-07-05T04:52:39;20.90;65.00
2042;DHT22;1026;51.460;7.252;2022-07-05T04:55:05;21.00;65.10
2042;DHT22;1026;51.460;7.252;2022-07-05T04:57:40;20.90;65.10
2042;DHT22;1026;51.460;7.252;2022-07-05T05:00:08;20.90;65.10
2042;DHT22;1026;51.460;7.252;2022-07-05T05:02:35;20.80;65.20
2042;DHT22;1026;51.460;7.252;2022-07-05T05:05:01;20.90;65.20
2042;DHT22;1026;51.460;7.252;2022-07-05T05:07:27;20.90;65.30
2042;DHT22;1026;51.460;7.252;2022-07-05T05:09:52;20.80;65.20
2042;DHT22;1026;51.460;7.252;2022-07-05T05:12:18;20.80;65.20
2042;DHT22;1026;51.460;7.252;2022-07-05T05:14:44;20.80;65.20
2042;DHT22;1026;51.460;7.252;2022-07-05T05:17:11;20.80;65.20
2042;DHT22;1026;51.460;7.252;2022-07-05T05:19:37;20.80;65.20
2042;DHT22;1026;51.460;7.252;2022-07-05T05:22:03;20.80;65.20
2042;DHT22;1026;51.460;7.252;2022-07-05T05:24:28;20.80;65.30
2042;DHT22;1026;51.460;7.252;2022-07-05T05:26:54;20.80;65.30
2042;DHT22;1026;51.460;7.252;2022-07-05T05:29:20;20.70;65.20
2042;DHT22;1026;51.460;7.252;2022-07-05T05:31:47;20.80;65.30
2042;DHT22;1026;51.460;7.252;2022-07-05T05:34:13;20.70;65.30
2042;DHT22;1026;51.460;7.252;2022-07-05T05:36:39;20.70;65.30
2042;DHT22;1026;51.460;7.252;2022-07-05T05:39:05;20.60;65.20
2042;DHT22;1026;51.460;7.252;2022-07-05T05:41:30;20.70;65.30
2042;DHT22;1026;51.460;7.252;2022-07-05T05:43:56;20.60;65.30
2042;DHT22;1026;51.460;7.252;2022-07-05T05:46:22;20.70;65.40
2042;DHT22;1026;51.460;7.252;2022-07-05T05:48:47;20.60;65.30
2042;DHT22;1026;51.460;7.252;2022-07-05T05:51:13;20.70;65.40
2042;DHT22;1026;51.460;7.252;2022-07-05T05:53:39;20.60;65.30
2042;DHT22;1026;51.460;7.252;2022-07-05T05:56:05;20.60;65.40
2042;DHT22;1026;51.460;7.252;2022-07-05T05:58:30;20.70;65.50
2042;DHT22;1026;51.460;7.252;2022-07-05T06:00:56;20.60;65.40
2042;DHT22;1026;51.460;7.252;2022-07-05T06:03:25;20.60;65.50
2042;DHT22;1026;51.460;7.252;2022-07-05T06:05:51;20.60;65.50
2042;DHT22;1026;51.460;7.252;2022-07-05T06:08:17;20.60;65.50
2042;DHT22;1026;51.460;7.252;2022-07-05T06:10:44;20.50;65.50
2042;DHT22;1026;51.460;7.252;2022-07-05T06:13:11;20.50;65.50
2042;DHT22;1026;51.460;7.252;2022-07-05T06:15:39;20.50;65.50
2042;DHT22;1026;51.460;7.252;2022-07-05T06:18:06;20.60;65.70
2042;DHT22;1026;51.460;7.252;2022-07-05T06:20:33;20.60;65.70
2042;DHT22;1026;51.460;7.252;2022-07-05T06:23:00;20.60;65.70
2042;DHT22;1026;51.460;7.252;2022-07-05T06:25:26;20.50;65.50
2042;DHT22;1026;51.460;7.252;2022-07-05T06:27:55;20.50;65.60
2042;DHT22;1026;51.460;7.252;2022-07-05T06:30:23;20.50;65.60
2042;DHT22;1026;51.460;7.252;2022-07-05T06:32:50;20.60;65.80
2042;DHT22;1026;51.460;7.252;2022-07-05T06:35:16;20.60;65.70
2042;DHT22;1026;51.460;7.252;2022-07-05T06:37:46;20.60;65.70
2042;DHT22;1026;51.460;7.252;2022-07-05T06:40:17;20.50;65.70
2042;DHT22;1026;51.460;7.252;2022-07-05T06:42:43;20.50;65.70
2042;DHT22;1026;51.460;7.252;2022-07-05T06:45:09;20.60;65.80
2042;DHT22;1026;51.460;7.252;2022-07-05T06:47:36;20.60;65.80
2042;DHT22;1026;51.460;7.252;2022-07-05T06:50:03;20.50;65.50
2042;DHT22;1026;51.460;7.252;2022-07-05T06:52:29;20.60;65.70
2042;DHT22;1026;51.460;7.252;2022-07-05T06:54:57;20.50;65.60
2042;DHT22;1026;51.460;7.252;2022-07-05T06:57:23;20.50;65.70
2042;DHT22;1026;51.460;7.252;2022-07-05T06:59:50;20.50;65.70
2042;DHT22;1026;51.460;7.252;2022-07-05T07:02:16;20.50;65.70
2042;DHT22;1026;51.460;7.252;2022-07-05T07:04:42;20.50;65.70
2042;DHT22;1026;51.460;7.252;2022-07-05T07:07:08;20.50;65.70
2042;DHT22;1026;51.460;7.252;2022-07-05T07:09:49;20.50;65.70
2042;DHT22;1026;51.460;7.252;2022-07-05T07:12:14;20.50;65.80
2042;DHT22;1026;51.460;7.252;2022-07-05T07:14:40;20.50;65.80
2042;DHT22;1026;51.460;7.252;2022-07-05T07:17:06;20.50;65.80
2042;DHT22;1026;51.460;7.252;2022-07-05T07:19:32;20.50;65.80
2042;DHT22;1026;51.460;7.252;2022-07-05T07:21:57;20.50;65.80
2042;DHT22;1026;51.460;7.252;2022-07-05T07:24:23;20.50;65.30
2042;DHT22;1026;51.460;7.252;2022-07-05T07:26:49;20.40;65.60
2042;DHT22;1026;51.460;7.252;2022-07-05T07:29:31;20.40;65.60
2042;DHT22;1026;51.460;7.252;2022-07-05T07:31:59;20.40;65.60
2042;DHT22;1026;51.460;7.252;2022-07-05T07:34:26;20.40;65.60
2042;DHT22;1026;51.460;7.252;2022-07-05T07:36:52;20.50;65.50
2042;DHT22;1026;51.460;7.252;2022-07-05T07:39:18;20.50;65.70
2042;DHT22;1026;51.460;7.252;2022-07-05T07:41:44;20.40;65.50
2042;DHT22;1026;51.460;7.252;2022-07-05T07:44:10;20.40;65.50
2042;DHT22;1026;51.460;7.252;2022-07-05T07:46:36;20.50;65.70
2042;DHT22;1026;51.460;7.252;2022-07-05T07:49:04;20.40;65.50
2042;DHT22;1026;51.460;7.252;2022-07-05T07:51:30;20.40;65.60
2042;DHT22;1026;51.460;7.252;2022-07-05T07:53:56;20.40;65.60
2042;DHT22;1026;51.460;7.252;2022-07-05T07:56:22;20.50;65.80
2042;DHT22;1026;51.460;7.252;2022-07-05T07:58:48;20.40;65.50
2042;DHT22;1026;51.460;7.252;2022-07-05T08:01:14;20.50;65.70
2042;DHT22;1026;51.460;7.252;2022-07-05T08:03:40;20.40;65.60
2042;DHT22;1026;51.460;7.252;2022-07-05T08:06:07;20.50;65.70
2042;DHT22;1026;51.460;7.252;2022-07-05T08:08:34;20.40;65.40
2042;DHT22;1026;51.460;7.252;2022-07-05T08:11:00;20.40;65.70
2042;DHT22;1026;51.460;7.252;2022-07-05T08:13:26;20.50;65.80
2042;DHT22;1026;51.460;7.252;2022-07-05T08:15:52;20.50;65.50
2042;DHT22;1026;51.460;7.252;2022-07-05T08:18:18;20.40;65.30
2042;DHT22;1026;51.460;7.252;2022-07-05T08:21:04;20.50;65.70
2042;DHT22;1026;51.460;7.252;2022-07-05T08:23:44;20.40;65.60
2042;DHT22;1026;51.460;7.252;2022-07-05T08:26:10;20.50;65.50
2042;DHT22;1026;51.460;7.252;2022-07-05T08:28:36;20.50;65.60
2042;DHT22;1026;51.460;7.252;2022-07-05T08:31:01;20.50;65.60
2042;DHT22;1026;51.460;7.252;2022-07-05T08:33:27;20.40;65.60
2042;DHT22;1026;51.460;7.252;2022-07-05T08:35:53;20.50;64.40
2042;DHT22;1026;51.460;7.252;2022-07-05T08:38:18;20.50;65.70
2042;DHT22;1026;51.460;7.252;2022-07-05T08:40:46;20.60;65.80
2042;DHT22;1026;51.460;7.252;2022-07-05T08:43:15;20.60;65.50
2042;DHT22;1026;51.460;7.252;2022-07-05T08:45:43;20.50;65.50
2042;DHT22;1026;51.460;7.252;2022-07-05T08:48:10;20.50;66.00
2042;DHT22;1026;51.460;7.252;2022-07-05T08:50:38;20.60;66.00
2042;DHT22;1026;51.460;7.252;2022-07-05T08:53:05;20.60;65.80
2042;DHT22;1026;51.460;7.252;2022-07-05T08:55:32;20.60;66.10
2042;DHT22;1026;51.460;7.252;2022-07-05T08:57:58;20.70;66.10
2042;DHT22;1026;51.460;7.252;2022-07-05T09:00:24;20.70;65.30
2042;DHT22;1026;51.460;7.252;2022-07-05T09:02:51;20.70;65.80
2042;DHT22;1026;51.460;7.252;2022-07-05T09:05:18;20.80;66.10
2042;DHT22;1026;51.460;7.252;2022-07-05T09:07:52;20.80;66.30
2042;DHT22;1026;51.460;7.252;2022-07-05T09:10:21;20.80;65.80
2042;DHT22;1026;51.460;7.252;2022-07-05T09:12:48;20.80;65.50
2042;DHT22;1026;51.460;7.252;2022-07-05T09:15:14;20.80;65.80
2042;DHT22;1026;51.460;7.252;2022-07-05T09:17:44;20.80;65.50
2042;DHT22;1026;51.460;7.252;2022-07-05T09:20:12;20.90;65.20
2042;DHT22;1026;51.460;7.252;2022-07-05T09:22:48;20.90;65.60
2042;DHT22;1026;51.460;7.252;2022-07-05T09:27:57;20.90;65.90
2042;DHT22;1026;51.460;7.252;2022-07-05T09:30:28;21.00;66.10
2042;DHT22;1026;51.460;7.252;2022-07-05T09:33:07;21.00;65.80
2042;DHT22;1026;51.460;7.252;2022-07-05T09:35:36;21.00;65.20
2042;DHT22;1026;51.460;7.252;2022-07-05T09:38:03;20.90;65.20
2042;DHT22;1026;51.460;7.252;2022-07-05T09:40:33;21.00;64.90
2042;DHT22;1026;51.460;7.252;2022-07-05T09:43:13;21.10;65.80
2042;DHT22;1026;51.460;7.252;2022-07-05T09:45:39;21.10;66.00
2042;DHT22;1026;51.460;7.252;2022-07-05T09:48:07;21.10;64.60
2042;DHT22;1026;51.460;7.252;2022-07-05T09:50:35;21.10;64.90
2042;DHT22;1026;51.460;7.252;2022-07-05T09:53:00;21.10;63.10
2042;DHT22;1026;51.460;7.252;2022-07-05T09:55:26;21.30;65.20
2042;DHT22;1026;51.460;7.252;2022-07-05T09:57:52;21.20;64.50
2042;DHT22;1026;51.460;7.252;2022-07-05T10:00:21;21.30;65.20
2042;DHT22;1026;51.460;7.252;2022-07-05T10:02:50;21.30;65.40
2042;DHT22;1026;51.460;7.252;2022-07-05T10:05:18;21.40;64.90
2042;DHT22;1026;51.460;7.252;2022-07-05T10:07:47;21.40;65.20
2042;DHT22;1026;51.460;7.252;2022-07-05T10:10:16;21.40;64.90
2042;DHT22;1026;51.460;7.252;2022-07-05T10:12:44;21.40;65.20
2042;DHT22;1026;51.460;7.252;2022-07-05T10:15:11;21.40;65.20
2042;DHT22;1026;51.460;7.252;2022-07-05T10:17:50;21.40;64.90
2042;DHT22;1026;51.460;7.252;2022-07-05T10:20:22;21.50;65.20
2042;DHT22;1026;51.460;7.252;2022-07-05T10:22:49;21.50;64.40
2042;DHT22;1026;51.460;7.252;2022-07-05T10:25:15;21.50;64.00
2042;DHT22;1026;51.460;7.252;2022-07-05T10:27:43;21.60;63.70
2042;DHT22;1026;51.460;7.252;2022-07-05T10:30:10;21.60;64.30
2042;DHT22;1026;51.460;7.252;2022-07-05T10:32:36;21.70;64.30
2042;DHT22;1026;51.460;7.252;2022-07-05T10:35:04;21.70;63.40
2042;DHT22;1026;51.460;7.252;2022-07-05T10:37:32;21.60;61.80
2042;DHT22;1026;51.460;7.252;2022-07-05T10:40:00;21.70;64.30
2042;DHT22;1026;51.460;7.252;2022-07-05T10:42:29;21.70;64.10
2042;DHT22;1026;51.460;7.252;2022-07-05T10:44:56;21.80;64.60
2042;DHT22;1026;51.460;7.252;2022-07-05T10:47:22;21.70;63.90
2042;DHT22;1026;51.460;7.252;2022-07-05T10:50:08;21.80;64.40
2042;DHT22;1026;51.460;7.252;2022-07-05T10:52:33;21.80;63.90
2042;DHT22;1026;51.460;7.252;2022-07-05T10:55:22;21.80;61.90
2042;DHT22;1026;51.460;7.252;2022-07-05T11:00:47;21.90;63.00
2042;DHT22;1026;51.460;7.252;2022-07-05T11:03:34;21.90;62.70
2042;DHT22;1026;51.460;7.252;2022-07-05T11:06:01;22.00;63.20
2042;DHT22;1026;51.460;7.252;2022-07-05T11:08:29;21.90;61.50
2042;DHT22;1026;51.460;7.252;2022-07-05T11:11:13;22.00;63.10
2042;DHT22;1026;51.460;7.252;2022-07-05T11:13:41;22.10;61.00
2042;DHT22;1026;51.460;7.252;2022-07-05T11:16:25;22.00;62.80
2042;DHT22;1026;51.460;7.252;2022-07-05T11:19:03;22.10;63.10
2042;DHT22;1026;51.460;7.252;2022-07-05T11:21:29;22.10;62.50
2042;DHT22;1026;51.460;7.252;2022-07-05T11:24:19;22.10;62.60
2042;DHT22;1026;51.460;7.252;2022-07-05T11:26:48;22.10;62.60
2042;DHT22;1026;51.460;7.252;2022-07-05T11:32:12;22.20;61.70
2042;DHT22;1026;51.460;7.252;2022-07-05T11:34:40;22.30;62.40
2042;DHT22;1026;51.460;7.252;2022-07-05T11:39:45;22.30;61.30
2042;DHT22;1026;51.460;7.252;2022-07-05T11:42:19;22.40;61.70
2042;DHT22;1026;51.460;7.252;2022-07-05T11:44:49;22.40;62.30
2042;DHT22;1026;51.460;7.252;2022-07-05T11:47:17;22.40;62.70
2042;DHT22;1026;51.460;7.252;2022-07-05T11:49:53;22.50;62.10
2042;DHT22;1026;51.460;7.252;2022-07-05T11:52:28;22.50;59.40
2042;DHT22;1026;51.460;7.252;2022-07-05T11:54:54;22.50;60.20
2042;DHT22;1026;51.460;7.252;2022-07-05T11:57:21;22.60;61.40
2042;DHT22;1026;51.460;7.252;2022-07-05T11:59:47;22.60;62.30
2042;DHT22;1026;51.460;7.252;2022-07-05T12:02:14;22.60;61.00
2042;DHT22;1026;51.460;7.252;2022-07-05T12:04:39;22.60;59.90
2042;DHT22;1026;51.460;7.252;2022-07-05T12:07:05;22.60;60.10
2042;DHT22;1026;51.460;7.252;2022-07-05T12:09:32;22.60;60.90
2042;DHT22;1026;51.460;7.252;2022-07-05T12:12:20;22.80;61.90
2042;DHT22;1026;51.460;7.252;2022-07-05T12:15:01;22.80;62.50
2042;DHT22;1026;51.460;7.252;2022-07-05T12:17:27;22.80;62.30
2042;DHT22;1026;51.460;7.252;2022-07-05T12:19:53;22.90;61.20
2042;DHT22;1026;51.460;7.252;2022-07-05T12:22:28;22.90;61.50
2042;DHT22;1026;51.460;7.252;2022-07-05T12:24:54;23.00;61.90
2042;DHT22;1026;51.460;7.252;2022-07-05T12:27:21;23.00;60.30
2042;DHT22;1026;51.460;7.252;2022-07-05T12:29:46;22.90;60.60
2042;DHT22;1026;51.460;7.252;2022-07-05T12:32:12;23.10;61.50
2042;DHT22;1026;51.460;7.252;2022-07-05T12:34:38;23.00;60.60
2042;DHT22;1026;51.460;7.252;2022-07-05T12:37:04;23.20;61.10
2042;DHT22;1026;51.460;7.252;2022-07-05T12:39:30;23.10;61.60
2042;DHT22;1026;51.460;7.252;2022-07-05T12:41:56;23.20;60.70
2042;DHT22;1026;51.460;7.252;2022-07-05T12:44:22;23.20;59.40
2042;DHT22;1026;51.460;7.252;2022-07-05T12:46:49;23.30;59.80
2042;DHT22;1026;51.460;7.252;2022-07-05T12:49:15;23.30;59.10
2042;DHT22;1026;51.460;7.252;2022-07-05T12:51:42;23.40;60.00
2042;DHT22;1026;51.460;7.252;2022-07-05T12:54:19;23.40;61.20
2042;DHT22;1026;51.460;7.252;2022-07-05T12:57:00;23.40;61.10
2042;DHT22;1026;51.460;7.252;2022-07-05T13:02:40;23.50;61.50
2042;DHT22;1026;51.460;7.252;2022-07-05T13:05:08;23.60;60.10
2042;DHT22;1026;51.460;7.252;2022-07-05T13:07:41;23.60;59.70
2042;DHT22;1026;51.460;7.252;2022-07-05T13:10:16;23.70;60.90
2042;DHT22;1026;51.460;7.252;2022-07-05T13:12:42;23.70;58.90
2042;DHT22;1026;51.460;7.252;2022-07-05T13:15:08;23.70;60.30
2042;DHT22;1026;51.460;7.252;2022-07-05T13:17:34;23.80;57.80
2042;DHT22;1026;51.460;7.252;2022-07-05T13:20:00;23.80;58.90
2042;DHT22;1026;51.460;7.252;2022-07-05T13:22:26;23.80;59.60
2042;DHT22;1026;51.460;7.252;2022-07-05T13:24:52;23.80;60.20
2042;DHT22;1026;51.460;7.252;2022-07-05T13:27:19;23.90;59.90
2042;DHT22;1026;51.460;7.252;2022-07-05T13:29:45;24.00;59.50
2042;DHT22;1026;51.460;7.252;2022-07-05T13:32:10;24.00;58.80
2042;DHT22;1026;51.460;7.252;2022-07-05T13:34:36;24.10;58.40
2042;DHT22;1026;51.460;7.252;2022-07-05T13:37:02;24.10;59.10
2042;DHT22;1026;51.460;7.252;2022-07-05T13:39:28;24.10;58.90
2042;DHT22;1026;51.460;7.252;2022-07-05T13:41:55;24.20;56.70
2042;DHT22;1026;51.460;7.252;2022-07-05T13:44:21;24.20;58.60
2042;DHT22;1026;51.460;7.252;2022-07-05T13:46:47;24.30;59.30
2042;DHT22;1026;51.460;7.252;2022-07-05T13:49:13;24.30;58.80
2042;DHT22;1026;51.460;7.252;2022-07-05T13:51:39;24.40;57.30
2042;DHT22;1026;51.460;7.252;2022-07-05T13:54:05;24.40;57.60
2042;DHT22;1026;51.460;7.252;2022-07-05T13:56:30;24.40;57.50
2042;DHT22;1026;51.460;7.252;2022-07-05T13:58:57;24.50;57.90
2042;DHT22;1026;51.460;7.252;2022-07-05T14:01:24;24.50;58.70
2042;DHT22;1026;51.460;7.252;2022-07-05T14:03:53;24.60;58.20
2042;DHT22;1026;51.460;7.252;2022-07-05T14:06:19;24.60;58.40
2042;DHT22;1026;51.460;7.252;2022-07-05T14:08:45;24.70;59.00
2042;DHT22;1026;51.460;7.252;2022-07-05T14:11:11;24.70;55.90
2042;DHT22;1026;51.460;7.252;2022-07-05T14:13:38;24.70;57.70
2042;DHT22;1026;51.460;7.252;2022-07-05T14:16:04;24.80;57.60
2042;DHT22;1026;51.460;7.252;2022-07-05T14:18:30;24.80;58.60
2042;DHT22;1026;51.460;7.252;2022-07-05T14:20:56;24.90;57.90
2042;DHT22;1026;51.460;7.252;2022-07-05T14:23:21;24.90;57.90
2042;DHT22;1026;51.460;7.252;2022-07-05T14:25:47;25.00;57.90
2042;DHT22;1026;51.460;7.252;2022-07-05T14:28:13;25.00;56.70
2042;DHT22;1026;51.460;7.252;2022-07-05T14:30:41;25.00;55.90
2042;DHT22;1026;51.460;7.252;2022-07-05T14:33:09;25.00;57.40
2042;DHT22;1026;51.460;7.252;2022-07-05T14:35:35;25.10;57.60
2042;DHT22;1026;51.460;7.252;2022-07-05T14:38:01;25.10;57.20
2042;DHT22;1026;51.460;7.252;2022-07-05T14:40:27;25.20;56.80
2042;DHT22;1026;51.460;7.252;2022-07-05T14:42:56;25.20;57.10
2042;DHT22;1026;51.460;7.252;2022-07-05T14:45:24;25.30;55.80
2042;DHT22;1026;51.460;7.252;2022-07-05T14:47:51;25.30;57.20
2042;DHT22;1026;51.460;7.252;2022-07-05T14:50:17;25.40;58.00
2042;DHT22;1026;51.460;7.252;2022-07-05T14:52:43;25.40;56.80
2042;DHT22;1026;51.460;7.252;2022-07-05T14:55:09;25.40;56.60
2042;DHT22;1026;51.460;7.252;2022-07-05T14:57:36;25.30;56.60
2042;DHT22;1026;51.460;7.252;2022-07-05T15:00:04;25.30;54.40
2042;DHT22;1026;51.460;7.252;2022-07-05T15:02:30;25.40;55.60
2042;DHT22;1026;51.460;7.252;2022-07-05T15:04:56;25.40;56.10
2042;DHT22;1026;51.460;7.252;2022-07-05T15:07:21;25.40;56.90
2042;DHT22;1026;51.460;7.252;2022-07-05T15:09:47;25.40;56.80
2042;DHT22;1026;51.460;7.252;2022-07-05T15:12:13;25.40;57.50
2042;DHT22;1026;51.460;7.252;2022-07-05T15:14:39;25.50;57.40
2042;DHT22;1026;51.460;7.252;2022-07-05T15:17:05;25.50;56.90
2042;DHT22;1026;51.460;7.252;2022-07-05T15:19:31;25.40;55.70
2042;DHT22;1026;51.460;7.252;2022-07-05T15:21:56;25.50;55.70
2042;DHT22;1026;51.460;7.252;2022-07-05T15:24:22;25.50;56.40
2042;DHT22;1026;51.460;7.252;2022-07-05T15:26:47;25.50;56.00
2042;DHT22;1026;51.460;7.252;2022-07-05T15:29:13;25.50;55.80
2042;DHT22;1026;51.460;7.252;2022-07-05T15:31:39;25.50;55.50
2042;DHT22;1026;51.460;7.252;2022-07-05T15:34:06;25.50;56.10
2042;DHT22;1026;51.460;7.252;2022-07-05T15:36:32;25.50;55.80
2042;DHT22;1026;51.460;7.252;2022-07-05T15:38:59;25.50;56.10
2042;DHT22;1026;51.460;7.252;2022-07-05T15:41:27;25.50;56.40
2042;DHT22;1026;51.460;7.252;2022-07-05T15:43:53;25.50;57.00
2042;DHT22;1026;51.460;7.252;2022-07-05T15:46:18;25.50;56.80
2042;DHT22;1026;51.460;7.252;2022-07-05T15:48:44;25.50;56.70
2042;DHT22;1026;51.460;7.252;2022-07-05T15:51:10;25.50;57.40
2042;DHT22;1026;51.460;7.252;2022-07-05T15:53:38;25.50;57.40
2042;DHT22;1026;51.460;7.252;2022-07-05T15:56:04;25.50;57.40
2042;DHT22;1026;51.460;7.252;2022-07-05T15:58:31;25.50;57.50
2042;DHT22;1026;51.460;7.252;2022-07-05T16:00:59;25.50;57.60
2042;DHT22;1026;51.460;7.252;2022-07-05T16:03:25;25.50;57.70
2042;DHT22;1026;51.460;7.252;2022-07-05T16:05:52;25.40;57.60
2042;DHT22;1026;51.460;7.252;2022-07-05T16:08:18;25.50;57.40
2042;DHT22;1026;51.460;7.252;2022-07-05T16:10:44;25.50;57.10
2042;DHT22;1026;51.460;7.252;2022-07-05T16:13:10;25.50;57.50
2042;DHT22;1026;51.460;7.252;2022-07-05T16:15:41;25.40;56.40
2042;DHT22;1026;51.460;7.252;2022-07-05T16:18:22;25.50;57.00